Terminal Aerodrome Forecast
Issued by NWS Wilmington, NC

Home | Current Version | Previous Version | Text Only | Print | Product List | Glossary On
Versions: 1 2 3 4 5 6 7 8 9 10 11 12 13
513
FTUS42 KILM 042328
TAFILM
TAF
KILM 042328Z 0500/0524 07007KT P6SM -RA OVC060
     FM050200 05007KT 4SM -RA BR SCT010 OVC017
      TEMPO 0503/0507 BKN008
     FM050700 16007KT 2SM RA BR OVC007
     FM051100 28007KT 3SM RA BR OVC006
     FM051400 32008KT P6SM VCSH BKN005 OVC070
     FM051800 33006KT P6SM BKN010 BKN080
     FM052000 35006KT P6SM FEW015 BKN060=

USA.gov is the U.S. government's official web portal to all federal, state and local government web resources and services.